Terminal Aerodrome Forecast
Issued by NWS

Home | Current Version | Previous Version | Text Only | Print | Product List | Glossary On
Versions: 1 2 3 4 5 6 7 8 9 10 11 12 13 14 15 16 17 18 19 20
000
FTUS43 KAPX 250520
TAFMBL
TAF
KMBL 250520Z 2506/2606 09006KT P6SM OVC070
     FM251500 09008KT P6SM BKN150
     FM251900 02010KT P6SM SCT150
     FM260100 05005KT P6SM SKC
      AMD LTD TO CLD VIS AND WIND=

USA.gov is the U.S. government's official web portal to all federal, state and local government web resources and services.